Time;durP1;ratioP1;P1;durP2;ratioP2;P2;SDS_P1;SDS_P2;PMS_P1;PMS_P2;Temp;Humidity;BMP_temperature;BMP_pressure;BME280_temperature;BME280_humidity;BME280_pressure;Samples;Min_cycle;Max_cycle;Signal;HPM_P1;HPM_P2
2021/05/20 00:00:23;;;;;;;1.58;0.70;;;;;;;15.60;47.78;100383.69;5014400;28;20068;-72
2021/05/20 00:02:51;;;;;;;0.98;0.88;;;;;;;15.26;49.13;100390.41;5013348;28;20042;-74
2021/05/20 00:05:18;;;;;;;2.83;1.00;;;;;;;15.04;50.24;100390.16;5014455;28;20460;-71
2021/05/20 00:07:46;;;;;;;1.85;0.88;;;;;;;15.15;50.10;100393.75;4996101;28;20057;-72
2021/05/20 00:10:15;;;;;;;3.10;1.00;;;;;;;15.06;50.53;100394.34;5012422;28;20400;-71
2021/05/20 00:12:44;;;;;;;1.02;0.80;;;;;;;15.04;50.56;100401.50;5013396;28;20045;-73
2021/05/20 00:15:14;;;;;;;2.97;1.17;;;;;;;15.23;50.58;100410.75;5013734;28;20096;-73
2021/05/20 00:17:42;;;;;;;1.10;1.00;;;;;;;15.26;50.84;100413.19;5013661;28;20089;-74
2021/05/20 00:20:09;;;;;;;0.80;0.80;;;;;;;15.23;50.46;100416.84;5013856;28;20034;-73
2021/05/20 00:22:36;;;;;;;1.40;1.27;;;;;;;15.27;50.28;100418.34;5013069;28;20042;-73
2021/05/20 00:25:04;;;;;;;3.50;1.33;;;;;;;14.80;52.29;100413.56;5013315;28;20129;-72
2021/05/20 00:27:31;;;;;;;4.38;1.13;;;;;;;14.92;52.01;100423.31;5013463;28;20034;-72
2021/05/20 00:29:58;;;;;;;1.23;1.13;;;;;;;15.07;51.67;100427.53;5013768;28;20117;-71
2021/05/20 00:32:25;;;;;;;5.22;1.42;;;;;;;15.12;51.39;100435.94;5013103;28;20092;-73
2021/05/20 00:34:53;;;;;;;1.20;1.17;;;;;;;15.12;51.74;100435.09;5013725;28;20038;-72
2021/05/20 00:37:20;;;;;;;2.85;1.20;;;;;;;15.11;51.92;100439.50;5013461;28;20038;-72
2021/05/20 00:39:46;;;;;;;1.55;1.27;;;;;;;14.94;52.70;100426.66;5013001;28;20562;-73
2021/05/20 00:42:14;;;;;;;3.05;1.25;;;;;;;14.96;53.22;100430.00;5007616;28;20089;-71
2021/05/20 00:45:01;;;;;;;3.38;1.20;;;;;;;14.97;52.94;100431.72;5005860;28;20453;-75
2021/05/20 00:47:30;;;;;;;2.78;1.80;;;;;;;14.97;53.29;100429.09;5005694;28;20034;-74
2021/05/20 00:49:59;;;;;;;4.60;1.40;;;;;;;15.05;52.56;100433.84;5004487;28;20127;-74
2021/05/20 00:52:25;;;;;;;2.33;1.33;;;;;;;14.94;52.65;100435.38;5005985;28;20140;-73
2021/05/20 00:54:56;;;;;;;1.42;1.33;;;;;;;14.99;52.80;100442.94;5006046;28;22307;-74
2021/05/20 00:57:24;;;;;;;3.17;1.65;;;;;;;14.85;52.88;100445.63;5005622;28;20068;-74
2021/05/20 00:59:52;;;;;;;3.55;1.70;;;;;;;14.86;53.13;100452.53;5005811;28;20562;-74
2021/05/20 01:02:20;;;;;;;2.30;1.55;;;;;;;14.90;53.33;100447.00;5006377;28;20046;-75
2021/05/20 01:04:48;;;;;;;1.67;1.20;;;;;;;14.93;53.33;100445.97;5004991;28;20086;-75
2021/05/20 01:07:15;;;;;;;1.70;1.60;;;;;;;14.77;54.28;100446.13;5005918;28;20065;-74
2021/05/20 01:09:41;;;;;;;2.70;1.40;;;;;;;14.63;54.47;100441.75;5005655;28;20049;-74
2021/05/20 01:12:10;;;;;;;3.85;1.42;;;;;;;14.70;54.32;100450.09;5006098;28;20068;-73
2021/05/20 01:14:39;;;;;;;0.95;0.93;;;;;;;14.81;54.22;100449.41;5004161;28;20516;-73
2021/05/20 01:17:07;;;;;;;2.70;0.90;;;;;;;14.93;53.23;100446.81;5004184;28;20038;-73
2021/05/20 01:19:39;;;;;;;0.82;0.82;;;;;;;14.85;53.04;100453.50;5009607;28;20579;-73
2021/05/20 01:22:06;;;;;;;3.13;1.45;;;;;;;14.73;53.07;100456.91;5010694;28;20046;-73
2021/05/20 01:24:34;;;;;;;2.75;0.93;;;;;;;14.77;52.68;100458.41;5006688;28;20038;-73
2021/05/20 01:27:03;;;;;;;1.08;0.80;;;;;;;14.63;53.42;100467.97;5005508;28;20456;-74
2021/05/20 01:29:30;;;;;;;1.23;1.10;;;;;;;14.72;53.01;100468.34;5005052;28;20137;-74
2021/05/20 01:31:58;;;;;;;1.10;1.00;;;;;;;14.71;52.68;100477.16;5004903;28;20038;-75
2021/05/20 01:34:25;;;;;;;2.67;1.30;;;;;;;14.60;52.76;100475.22;4986588;28;20072;-74
2021/05/20 01:36:52;;;;;;;1.35;0.85;;;;;;;14.60;52.64;100470.81;5005356;28;20066;-73
2021/05/20 01:39:19;;;;;;;1.25;0.63;;;;;;;14.57;52.64;100473.63;5005363;28;20054;-74
2021/05/20 01:41:46;;;;;;;1.20;0.90;;;;;;;14.53;52.45;100476.53;4987869;28;20786;-73
2021/05/20 01:44:13;;;;;;;0.90;0.50;;;;;;;14.45;52.42;100476.16;5005513;28;20042;-73
2021/05/20 01:46:40;;;;;;;2.40;0.80;;;;;;;14.37;52.52;100464.34;5005401;28;20037;-73
2021/05/20 01:49:10;;;;;;;3.70;0.73;;;;;;;14.28;52.40;100474.59;5005806;28;20074;-74
2021/05/20 01:51:37;;;;;;;0.52;0.52;;;;;;;14.48;51.95;100465.47;5005693;28;20121;-73
2021/05/20 01:54:05;;;;;;;0.68;0.68;;;;;;;14.57;51.28;100459.66;4989119;28;20042;-73
2021/05/20 01:56:36;;;;;;;2.30;0.80;;;;;;;14.56;51.18;100464.06;5006178;28;20558;-72
2021/05/20 01:59:05;;;;;;;0.60;0.60;;;;;;;14.45;51.26;100466.50;5005923;28;20046;-74
2021/05/20 02:01:33;;;;;;;0.65;0.60;;;;;;;14.36;51.30;100469.69;5005546;28;20054;-74
2021/05/20 02:04:00;;;;;;;0.85;0.70;;;;;;;14.50;50.91;100474.97;5004978;28;20129;-74
2021/05/20 02:06:28;;;;;;;3.25;1.33;;;;;;;14.31;51.63;100469.97;5005870;28;20052;-73
2021/05/20 02:08:59;;;;;;;5.72;0.90;;;;;;;14.25;51.81;100474.75;5005449;28;20088;-73
2021/05/20 02:11:26;;;;;;;1.15;0.80;;;;;;;14.34;52.46;100476.81;5004901;28;20069;-74
2021/05/20 02:13:53;;;;;;;1.10;0.80;;;;;;;14.36;52.13;100475.78;5005174;28;20120;-72
2021/05/20 02:16:20;;;;;;;1.10;0.70;;;;;;;14.27;52.18;100470.25;5005503;28;20504;-72
2021/05/20 02:18:47;;;;;;;2.70;0.75;;;;;;;14.26;52.42;100479.06;5006341;28;20054;-72
2021/05/20 02:21:14;;;;;;;2.25;0.95;;;;;;;14.13;52.43;100479.81;5008665;28;20046;-71
2021/05/20 02:23:41;;;;;;;1.77;0.77;;;;;;;14.28;52.14;100474.59;5008392;28;20096;-72
2021/05/20 02:26:09;;;;;;;1.00;0.60;;;;;;;14.35;51.72;100471.47;5008493;28;20497;-72
2021/05/20 02:28:36;;;;;;;0.85;0.85;;;;;;;14.14;53.01;100468.38;5008312;28;20141;-72
2021/05/20 02:31:03;;;;;;;0.70;0.70;;;;;;;14.11;52.62;100473.84;5009218;28;20037;-71
2021/05/20 02:33:30;;;;;;;0.68;0.55;;;;;;;14.16;52.20;100471.75;5008286;28;20436;-71
2021/05/20 02:35:57;;;;;;;2.17;1.02;;;;;;;14.19;53.07;100472.50;5007498;28;20050;-71
2021/05/20 02:38:24;;;;;;;2.30;0.60;;;;;;;14.22;52.92;100469.69;5007966;28;20112;-71
2021/05/20 02:40:51;;;;;;;2.15;0.68;;;;;;;14.20;52.97;100474.19;5007869;28;20057;-70
2021/05/20 02:43:18;;;;;;;1.13;0.93;;;;;;;14.10;52.88;100466.88;5007940;28;20129;-70
2021/05/20 02:45:45;;;;;;;1.77;1.13;;;;;;;13.96;53.53;100469.53;5007811;28;20212;-70
2021/05/20 02:48:15;;;;;;;4.35;0.93;;;;;;;14.08;52.87;100463.53;5008228;28;20049;-71
2021/05/20 02:50:43;;;;;;;1.00;0.90;;;;;;;14.08;52.87;100466.16;5008236;28;20116;-71
2021/05/20 02:53:10;;;;;;;2.67;0.90;;;;;;;14.01;53.03;100456.97;5008094;28;20697;-71
2021/05/20 02:55:37;;;;;;;1.08;0.95;;;;;;;14.14;52.19;100462.31;5007798;28;20058;-72
2021/05/20 02:58:04;;;;;;;6.15;1.00;;;;;;;14.08;52.46;100458.28;5008054;28;20053;-71
2021/05/20 03:00:33;;;;;;;1.27;0.90;;;;;;;14.04;52.76;100464.63;5007635;28;20548;-71
2021/05/20 03:03:01;;;;;;;2.58;0.95;;;;;;;14.13;52.93;100461.47;5007636;28;20038;-71
2021/05/20 03:05:30;;;;;;;0.98;0.95;;;;;;;14.11;52.19;100465.97;5009197;28;20049;-71
2021/05/20 03:07:57;;;;;;;1.10;1.00;;;;;;;14.11;52.54;100467.72;5011104;28;20556;-72
2021/05/20 03:10:24;;;;;;;2.97;1.58;;;;;;;14.01;52.81;100470.09;5008320;28;20150;-71
2021/05/20 03:12:52;;;;;;;2.28;0.80;;;;;;;13.88;52.63;100471.75;5007773;28;20045;-72
2021/05/20 03:15:19;;;;;;;3.63;0.90;;;;;;;13.48;53.58;100466.25;5008102;28;20124;-71
2021/05/20 03:17:46;;;;;;;0.88;0.80;;;;;;;13.50;53.50;100468.78;5007598;28;20140;-71
2021/05/20 03:20:13;;;;;;;1.10;1.00;;;;;;;13.58;53.08;100474.41;5007405;28;20064;-71
2021/05/20 03:22:40;;;;;;;1.50;1.08;;;;;;;13.43;53.89;100470.94;5007233;28;20037;-72
2021/05/20 03:25:08;;;;;;;4.78;0.80;;;;;;;13.34;54.18;100468.84;5006094;28;20124;-71
2021/05/20 03:27:35;;;;;;;1.10;1.02;;;;;;;13.29;53.96;100471.72;5006160;28;20535;-72
2021/05/20 03:30:07;;;;;;;3.28;1.13;;;;;;;13.44;53.66;100470.00;5006745;28;20481;-71
2021/05/20 03:32:35;;;;;;;1.27;1.10;;;;;;;13.30;54.18;100475.16;5005946;28;20038;-70
2021/05/20 03:35:02;;;;;;;1.58;1.35;;;;;;;13.40;53.93;100478.09;5007418;28;20041;-73
2021/05/20 03:37:30;;;;;;;1.20;1.00;;;;;;;13.50;53.74;100481.88;5006060;28;20045;-71
2021/05/20 03:39:57;;;;;;;2.08;1.02;;;;;;;13.40;54.38;100476.31;5007163;28;21027;-67
2021/05/20 03:42:23;;;;;;;1.23;1.00;;;;;;;13.48;54.31;100474.13;5006794;28;20082;-67
2021/05/20 03:44:51;;;;;;;5.30;1.50;;;;;;;13.55;54.84;100479.84;5007402;28;20073;-67
2021/05/20 03:47:18;;;;;;;4.40;1.70;;;;;;;13.45;54.68;100474.28;5007156;28;20096;-68
2021/05/20 03:49:45;;;;;;;2.80;1.10;;;;;;;13.42;55.44;100477.06;5005713;28;20488;-68
2021/05/20 03:52:12;;;;;;;3.03;1.40;;;;;;;13.47;54.94;100488.13;5007393;28;20427;-68
2021/05/20 03:54:42;;;;;;;6.05;1.63;;;;;;;13.54;54.75;100486.84;5006579;28;20096;-68
2021/05/20 03:57:10;;;;;;;1.33;0.98;;;;;;;13.49;55.17;100483.66;5005405;28;20046;-68
2021/05/20 03:59:37;;;;;;;1.50;0.90;;;;;;;13.67;54.32;100486.13;5006313;28;20046;-70
2021/05/20 04:02:05;;;;;;;2.22;0.93;;;;;;;13.48;54.96;100489.84;5007088;28;20038;-70
2021/05/20 04:04:32;;;;;;;1.70;1.20;;;;;;;13.73;53.79;100488.38;5005579;28;20046;-70
2021/05/20 04:06:59;;;;;;;1.65;1.15;;;;;;;13.77;54.00;100492.50;5005679;28;20093;-70
2021/05/20 04:09:26;;;;;;;1.98;1.17;;;;;;;13.86;53.03;100499.84;5006561;28;20038;-70
2021/05/20 04:11:53;;;;;;;1.13;1.00;;;;;;;13.95;52.94;100499.25;5005415;28;20038;-70
2021/05/20 04:14:20;;;;;;;1.60;1.00;;;;;;;13.98;53.50;100498.25;5006949;28;20049;-70
2021/05/20 04:16:47;;;;;;;4.13;1.65;;;;;;;14.02;53.45;100499.75;5006846;28;20050;-70
2021/05/20 04:19:15;;;;;;;5.07;1.50;;;;;;;13.95;53.98;100508.91;5006210;28;20073;-69
2021/05/20 04:21:43;;;;;;;2.28;1.00;;;;;;;13.97;53.66;100509.69;5006281;28;20041;-69
2021/05/20 04:24:10;;;;;;;1.83;1.55;;;;;;;14.01;53.64;100509.41;5005850;28;20104;-70
2021/05/20 04:26:37;;;;;;;4.38;1.77;;;;;;;14.01;54.05;100514.66;5005543;28;20143;-70
2021/05/20 04:29:05;;;;;;;5.35;1.58;;;;;;;14.01;54.50;100509.41;5005828;28;20034;-70
2021/05/20 04:31:32;;;;;;;3.05;1.73;;;;;;;13.98;54.22;100514.81;4989098;28;20389;-70
2021/05/20 04:34:00;;;;;;;2.83;1.40;;;;;;;13.98;54.65;100520.06;5007273;28;20034;-70
2021/05/20 04:36:27;;;;;;;2.17;1.20;;;;;;;14.07;53.91;100519.50;5008633;28;20532;-70
2021/05/20 04:38:54;;;;;;;3.30;0.88;;;;;;;14.15;53.94;100519.88;5013488;28;20061;-70
2021/05/20 04:41:21;;;;;;;6.13;1.42;;;;;;;14.24;52.97;100522.91;5012932;28;20081;-70
2021/05/20 04:43:48;;;;;;;3.83;1.38;;;;;;;14.45;51.96;100526.81;5012688;28;20103;-68
2021/05/20 04:46:15;;;;;;;0.98;0.95;;;;;;;14.51;51.65;100529.09;5012354;28;21442;-71
2021/05/20 04:48:42;;;;;;;2.65;0.80;;;;;;;14.66;50.97;100533.41;5011597;28;20038;-69
2021/05/20 04:51:09;;;;;;;1.90;1.35;;;;;;;14.71;50.96;100532.28;5012267;28;20128;-69
2021/05/20 04:53:36;;;;;;;1.40;1.02;;;;;;;14.94;49.93;100545.63;5012763;28;20038;-69
2021/05/20 04:56:03;;;;;;;2.35;0.90;;;;;;;15.23;49.51;100547.31;5012880;28;20493;-72
2021/05/20 04:58:30;;;;;;;6.70;1.40;;;;;;;15.59;48.45;100549.34;5010394;28;20044;-69
2021/05/20 05:00:57;;;;;;;1.75;1.13;;;;;;;15.98;47.32;100544.09;5012318;28;20076;-69
2021/05/20 05:03:24;;;;;;;1.95;1.10;;;;;;;16.28;46.95;100553.44;5010605;28;20145;-71
2021/05/20 05:05:53;;;;;;;1.20;1.08;;;;;;;16.54;45.83;100546.38;5012860;28;20080;-75
2021/05/20 05:08:20;;;;;;;3.65;1.23;;;;;;;16.98;44.97;100545.03;5012805;28;20057;-71
2021/05/20 05:10:47;;;;;;;2.03;0.82;;;;;;;17.05;43.93;100546.28;5012781;28;20504;-70
2021/05/20 05:13:18;;;;;;;2.58;0.93;;;;;;;17.41;43.90;100544.53;5012826;28;20099;-71
2021/05/20 05:15:45;;;;;;;2.85;1.13;;;;;;;17.82;42.92;100544.13;5012714;28;20054;-68
2021/05/20 05:18:13;;;;;;;2.38;1.00;;;;;;;18.20;42.28;100546.47;5012637;28;20089;-69
2021/05/20 05:20:40;;;;;;;1.50;0.80;;;;;;;18.56;41.74;100539.31;5010710;28;20493;-69
2021/05/20 05:23:07;;;;;;;2.60;0.95;;;;;;;18.88;41.06;100546.50;5012325;28;20429;-69
2021/05/20 05:25:37;;;;;;;1.60;1.50;;;;;;;19.21;40.08;100546.41;5011943;28;20088;-72
2021/05/20 05:28:05;;;;;;;3.17;1.08;;;;;;;19.40;38.78;100547.56;5012304;28;20042;-73
2021/05/20 05:30:34;;;;;;;3.70;0.90;;;;;;;19.42;38.48;100549.13;5012058;28;20128;-72
2021/05/20 05:33:01;;;;;;;0.70;0.70;;;;;;;19.91;37.67;100554.81;5011690;28;20536;-74
2021/05/20 05:35:28;;;;;;;3.13;0.90;;;;;;;20.17;37.07;100555.25;5009399;28;20048;-75
2021/05/20 05:37:55;;;;;;;6.50;1.17;;;;;;;20.37;36.50;100555.22;4991080;28;20092;-72
2021/05/20 05:40:23;;;;;;;4.65;1.00;;;;;;;20.69;36.18;100548.97;5011031;28;20046;-70
2021/05/20 05:42:50;;;;;;;4.15;0.80;;;;;;;21.06;35.28;100551.84;5012245;28;20101;-67
2021/05/20 05:45:17;;;;;;;3.03;1.20;;;;;;;21.26;34.79;100560.69;5010765;28;20274;-68
2021/05/20 05:47:44;;;;;;;1.42;0.80;;;;;;;21.45;34.56;100563.38;5008197;28;20069;-70
2021/05/20 05:50:13;;;;;;;2.80;1.60;;;;;;;21.58;34.66;100562.28;5008600;28;20049;-72
2021/05/20 05:52:40;;;;;;;5.15;0.88;;;;;;;22.02;33.95;100563.47;5005526;28;20046;-70
2021/05/20 05:55:08;;;;;;;0.80;0.80;;;;;;;22.11;33.17;100561.81;5013636;28;20405;-69
2021/05/20 05:57:35;;;;;;;3.53;0.80;;;;;;;22.27;33.33;100564.72;5015650;28;20058;-71
2021/05/20 06:00:05;;;;;;;5.00;0.80;;;;;;;22.46;32.79;100567.28;5011812;28;20085;-69
2021/05/20 06:02:46;;;;;;;8.48;1.02;;;;;;;23.03;32.16;100577.00;5014349;28;20072;-75
2021/05/20 06:05:13;;;;;;;1.42;1.00;;;;;;;23.39;31.52;100575.22;5013539;28;20460;-70
2021/05/20 06:07:47;;;;;;;1.45;0.85;;;;;;;23.70;31.26;100575.69;5012524;28;20046;-72
2021/05/20 06:10:14;;;;;;;6.70;1.30;;;;;;;23.95;30.75;100580.22;4993391;28;20038;-74
2021/05/20 06:12:41;;;;;;;1.13;0.65;;;;;;;23.95;30.45;100576.72;5015678;28;20595;-73
2021/05/20 06:15:09;;;;;;;6.70;0.90;;;;;;;24.32;29.84;100579.13;5014450;28;20038;-70
2021/05/20 06:17:37;;;;;;;0.98;0.80;;;;;;;24.62;29.38;100585.81;5014675;28;20057;-69
2021/05/20 06:20:05;;;;;;;3.53;0.75;;;;;;;24.69;28.76;100589.50;5015839;28;20052;-72
2021/05/20 06:22:32;;;;;;;2.53;1.55;;;;;;;24.88;28.62;100585.78;5014791;28;20068;-73
2021/05/20 06:24:59;;;;;;;2.45;1.45;;;;;;;24.68;28.42;100584.34;5014569;28;20062;-75
2021/05/20 06:27:27;;;;;;;3.97;1.05;;;;;;;24.99;28.32;100593.47;5014486;28;20042;-72
2021/05/20 06:29:55;;;;;;;2.80;1.00;;;;;;;25.31;27.70;100595.44;5014835;28;20050;-72
2021/05/20 06:32:22;;;;;;;2.17;1.27;;;;;;;25.58;27.20;100598.81;5014989;28;20050;-72
2021/05/20 06:34:50;;;;;;;0.52;0.52;;;;;;;25.59;27.32;100593.28;5014286;28;20081;-67
2021/05/20 06:37:17;;;;;;;1.58;0.70;;;;;;;25.64;27.15;100599.97;5008243;28;20448;-69
2021/05/20 06:39:44;;;;;;;2.17;1.20;;;;;;;25.77;25.93;100597.66;5013798;28;20144;-69
2021/05/20 06:42:14;;;;;;;2.05;0.80;;;;;;;26.21;25.87;100597.31;5008345;28;20042;-71
2021/05/20 06:44:42;;;;;;;5.05;1.23;;;;;;;26.29;25.42;100597.28;5013267;28;20041;-71
2021/05/20 06:47:09;;;;;;;6.70;0.82;;;;;;;26.70;25.03;100600.72;5013635;28;20124;-74
2021/05/20 06:49:36;;;;;;;3.17;0.82;;;;;;;26.75;25.40;100609.06;5014325;28;20496;-72
2021/05/20 06:52:03;;;;;;;1.70;0.77;;;;;;;26.77;24.72;100599.00;5007868;28;20050;-72
2021/05/20 06:54:30;;;;;;;2.65;0.80;;;;;;;27.27;24.96;100607.66;5008113;28;20041;-71
2021/05/20 06:57:05;;;;;;;2.67;1.15;;;;;;;27.57;23.83;100609.47;5013921;28;20040;-70
2021/05/20 07:02:18;;;;;;;3.78;1.20;;;;;;;28.09;22.41;100614.09;5005020;28;21123;-79
2021/05/20 07:04:45;;;;;;;2.15;0.95;;;;;;;27.75;22.17;100616.41;5000949;28;20545;-75
2021/05/20 07:07:12;;;;;;;6.55;1.00;;;;;;;28.28;21.73;100618.09;5008141;28;20125;-78
2021/05/20 07:09:40;;;;;;;2.45;0.50;;;;;;;28.66;21.52;100620.75;5006400;28;20136;-74
2021/05/20 07:12:07;;;;;;;2.10;0.95;;;;;;;28.02;20.77;100625.72;5003763;28;20096;-76
2021/05/20 07:14:34;;;;;;;3.15;1.15;;;;;;;28.26;21.69;100630.03;5004802;28;20204;-73
2021/05/20 07:17:01;;;;;;;3.53;0.60;;;;;;;28.52;21.27;100633.13;5003763;28;20084;-73
2021/05/20 07:19:28;;;;;;;2.65;1.08;;;;;;;29.12;21.13;100634.78;5005479;28;20081;-72
2021/05/20 07:21:55;;;;;;;4.13;0.88;;;;;;;29.42;20.60;100638.25;5006118;28;20061;-73
2021/05/20 07:24:23;;;;;;;1.65;0.77;;;;;;;29.73;20.96;100637.13;5005226;28;20045;-75
2021/05/20 07:26:54;;;;;;;1.15;0.60;;;;;;;29.92;20.74;100638.31;5004975;28;20046;-75
2021/05/20 07:29:21;;;;;;;0.70;0.50;;;;;;;29.96;19.64;100643.13;5004199;28;20454;-75
2021/05/20 07:31:49;;;;;;;0.90;0.50;;;;;;;29.36;20.10;100633.63;5009778;28;20180;-75
2021/05/20 07:34:16;;;;;;;2.65;0.60;;;;;;;30.16;19.93;100637.94;5013163;28;20165;-71
2021/05/20 07:36:43;;;;;;;1.20;0.63;;;;;;;30.17;19.64;100642.31;5006444;28;20034;-77
2021/05/20 07:39:10;;;;;;;1.00;0.82;;;;;;;30.46;19.67;100643.94;5005966;28;20129;-75
2021/05/20 07:41:37;;;;;;;2.38;0.55;;;;;;;30.47;18.61;100639.41;5006143;28;20456;-77
2021/05/20 07:44:04;;;;;;;0.43;0.40;;;;;;;30.57;18.63;100637.19;5006218;28;20124;-73
2021/05/20 07:46:31;;;;;;;2.90;1.35;;;;;;;30.64;18.76;100631.88;5005130;28;20077;-76
2021/05/20 07:48:58;;;;;;;3.10;0.98;;;;;;;30.48;18.84;100647.28;5008605;28;20065;-74
2021/05/20 07:51:25;;;;;;;2.28;0.60;;;;;;;29.92;19.14;100631.09;5012571;28;20090;-75
2021/05/20 07:53:52;;;;;;;3.20;0.60;;;;;;;30.37;18.98;100637.06;5013842;28;20042;-77
2021/05/20 07:56:19;;;;;;;2.00;0.70;;;;;;;29.74;18.72;100641.50;5007096;28;20085;-77
2021/05/20 07:58:52;;;;;;;0.85;0.80;;;;;;;30.70;18.35;100642.69;4988041;28;20408;-75
2021/05/20 08:01:21;;;;;;;0.55;0.52;;;;;;;29.63;18.23;100645.50;5010727;28;20168;-74
2021/05/20 08:03:52;;;;;;;1.20;0.55;;;;;;;30.09;18.60;100650.47;5007775;28;20073;-78
2021/05/20 08:06:26;;;;;;;0.90;0.77;;;;;;;29.53;18.82;100645.00;5003223;28;20053;-76
2021/05/20 08:09:13;;;;;;;2.47;0.63;;;;;;;29.88;19.19;100651.34;5006911;28;20034;-74
2021/05/20 08:11:40;;;;;;;1.88;0.77;;;;;;;30.12;17.71;100646.59;5004271;28;20045;-81
2021/05/20 08:14:08;;;;;;;0.93;0.77;;;;;;;30.94;17.51;100640.50;5004626;28;20066;-76
2021/05/20 08:16:34;;;;;;;1.17;0.75;;;;;;;30.30;17.67;100646.94;5006943;28;20146;-74
2021/05/20 08:19:02;;;;;;;0.80;0.47;;;;;;;30.59;17.98;100650.47;5004032;28;20037;-75
2021/05/20 08:21:29;;;;;;;1.95;0.70;;;;;;;30.90;17.65;100648.19;5004571;28;20053;-75
2021/05/20 08:23:56;;;;;;;1.40;0.70;;;;;;;31.20;17.68;100651.38;5005437;28;20038;-75
2021/05/20 08:26:25;;;;;;;2.03;0.90;;;;;;;30.99;17.89;100651.50;5003892;28;20062;-76
2021/05/20 08:28:53;;;;;;;0.77;0.52;;;;;;;30.89;18.29;100654.56;5003976;28;20053;-78
2021/05/20 08:31:20;;;;;;;2.00;0.93;;;;;;;30.40;18.98;100660.03;5005208;28;20382;-81
2021/05/20 08:33:47;;;;;;;6.40;1.30;;;;;;;30.60;18.48;100655.63;5004503;28;20125;-77
2021/05/20 08:36:14;;;;;;;1.40;0.80;;;;;;;30.36;18.70;100664.16;5004294;28;20052;-75
2021/05/20 08:38:41;;;;;;;2.20;1.17;;;;;;;28.90;19.69;100658.00;5003749;28;20058;-84
2021/05/20 08:41:09;;;;;;;1.40;0.70;;;;;;;29.72;19.49;100655.13;5005785;28;20619;-77
2021/05/20 08:43:37;;;;;;;3.13;0.85;;;;;;;29.05;19.32;100655.34;5004707;28;20112;-73
2021/05/20 08:46:05;;;;;;;2.47;1.02;;;;;;;29.15;19.97;100663.13;5003962;28;20074;-72
2021/05/20 08:48:32;;;;;;;2.05;0.75;;;;;;;28.70;20.59;100665.78;5005650;28;20216;-77
2021/05/20 08:51:01;;;;;;;3.30;0.80;;;;;;;28.83;20.99;100667.00;5007616;28;20137;-76
2021/05/20 08:53:29;;;;;;;1.65;0.70;;;;;;;27.93;21.99;100663.31;5007691;28;20439;-76
2021/05/20 08:55:56;;;;;;;1.42;1.27;;;;;;;28.16;22.17;100670.47;5007172;28;20512;-77
2021/05/20 08:58:25;;;;;;;1.45;0.85;;;;;;;28.47;22.41;100656.16;5004351;28;20046;-73
2021/05/20 09:00:53;;;;;;;2.85;0.90;;;;;;;27.93;22.63;100657.13;5003754;28;20042;-75
2021/05/20 09:03:21;;;;;;;3.25;0.90;;;;;;;26.68;23.65;100669.56;5004592;28;20397;-71
2021/05/20 09:05:49;;;;;;;5.13;1.10;;;;;;;26.88;24.26;100667.34;5002308;28;20034;-73
2021/05/20 09:08:21;;;;;;;2.40;1.00;;;;;;;27.05;23.67;100665.44;5004128;28;20069;-71
2021/05/20 09:10:48;;;;;;;1.40;0.90;;;;;;;26.90;23.44;100660.00;5003112;28;20041;-74
2021/05/20 09:13:18;;;;;;;2.30;1.05;;;;;;;27.11;23.97;100659.41;5004295;28;20050;-76
2021/05/20 09:15:46;;;;;;;2.85;0.88;;;;;;;27.01;24.50;100661.47;5003309;28;20049;-71
2021/05/20 09:18:18;;;;;;;1.80;1.30;;;;;;;26.58;24.00;100672.47;5004000;28;20049;-73
2021/05/20 09:20:57;;;;;;;3.42;1.90;;;;;;;25.99;24.36;100671.78;5003874;28;20505;-74
2021/05/20 09:23:28;;;;;;;1.70;1.48;;;;;;;25.56;24.89;100673.69;5006477;28;20477;-73
2021/05/20 09:26:06;;;;;;;4.70;1.05;;;;;;;25.38;25.69;100675.66;5003235;28;20038;-72
2021/05/20 09:28:42;;;;;;;1.10;1.00;;;;;;;25.80;25.20;100672.94;5005183;28;20042;-74
2021/05/20 09:31:11;;;;;;;2.42;1.00;;;;;;;25.80;24.09;100672.13;4985021;28;20123;-74
2021/05/20 09:33:38;;;;;;;2.58;1.20;;;;;;;25.60;25.02;100671.53;5004001;28;20133;-74
2021/05/20 09:36:05;;;;;;;1.92;1.35;;;;;;;25.84;25.08;100670.78;5002878;28;20038;-71
2021/05/20 09:38:36;;;;;;;3.38;1.55;;;;;;;25.63;24.21;100670.41;5004458;28;20373;-73
2021/05/20 09:41:06;;;;;;;2.83;1.83;;;;;;;25.41;24.16;100678.00;5007318;28;20071;-70
2021/05/20 09:43:35;;;;;;;2.28;1.10;;;;;;;25.61;24.31;100681.22;5003290;28;20092;-70
2021/05/20 09:46:10;;;;;;;2.03;1.50;;;;;;;25.54;23.88;100675.69;5005459;28;20504;-73
2021/05/20 09:48:43;;;;;;;1.27;1.17;;;;;;;25.66;24.25;100678.06;5002324;28;20061;-72
2021/05/20 09:51:27;;;;;;;1.58;1.20;;;;;;;25.48;23.45;100678.19;5002815;28;20104;-72
2021/05/20 09:53:55;;;;;;;;;;;;;;;25.29;24.10;100677.44;5004668;28;20045;-71
2021/05/20 09:56:43;;;;;;;2.22;1.27;;;;;;;24.95;23.49;100677.47;5005694;28;19929;-72
2021/05/20 09:59:15;;;;;;;3.15;1.80;;;;;;;25.11;23.21;100679.41;5005182;28;20074;-72
2021/05/20 10:01:43;;;;;;;2.38;1.48;;;;;;;25.23;23.87;100680.78;5010984;28;20034;-72
2021/05/20 10:04:29;;;;;;;1.67;1.30;;;;;;;25.14;23.87;100684.44;5004953;28;20065;-67
2021/05/20 10:06:57;;;;;;;9.85;1.75;;;;;;;24.92;23.97;100677.75;5002881;28;20041;-72
2021/05/20 10:09:24;;;;;;;2.13;1.08;;;;;;;25.20;24.62;100672.28;5003426;28;20096;-74
2021/05/20 10:11:52;;;;;;;6.63;1.58;;;;;;;24.63;24.26;100671.94;5006968;28;20132;-76
2021/05/20 10:14:20;;;;;;;1.45;1.20;;;;;;;24.10;24.48;100671.03;4987312;28;20128;-75
2021/05/20 10:16:50;;;;;;;1.17;0.95;;;;;;;24.64;24.03;100666.44;5006719;28;20115;-70
2021/05/20 10:19:17;;;;;;;1.58;1.10;;;;;;;24.80;22.42;100668.38;5003972;28;20515;-79
2021/05/20 10:21:47;;;;;;;3.22;1.35;;;;;;;24.75;22.11;100665.34;5003457;28;20041;-75
2021/05/20 10:24:15;;;;;;;1.23;0.90;;;;;;;24.39;23.21;100673.44;5003254;28;20468;-75
2021/05/20 10:26:43;;;;;;;2.90;1.38;;;;;;;24.65;23.17;100668.13;5002629;28;20046;-75
2021/05/20 10:29:10;;;;;;;1.10;1.02;;;;;;;24.82;23.18;100661.03;4999468;28;20128;-76
2021/05/20 10:31:41;;;;;;;1.92;1.23;;;;;;;24.42;22.95;100665.16;5003667;28;20511;-77
2021/05/20 10:34:09;;;;;;;2.50;1.30;;;;;;;24.59;23.90;100657.25;5001271;28;20088;-76
2021/05/20 10:36:36;;;;;;;2.72;1.35;;;;;;;24.35;24.62;100664.13;5003210;28;20145;-79
2021/05/20 10:39:19;;;;;;;2.53;0.95;;;;;;;24.41;23.13;100663.50;4997859;28;20085;-81
2021/05/20 10:41:45;;;;;;;1.95;1.02;;;;;;;24.66;23.27;100658.28;5011328;28;20050;-76
2021/05/20 10:44:14;;;;;;;0.77;0.77;;;;;;;24.64;22.49;100657.63;5015208;28;20548;-73
2021/05/20 10:47:02;;;;;;;1.45;1.05;;;;;;;24.33;22.00;100654.56;5014337;28;20089;-71
2021/05/20 10:49:50;;;;;;;0.73;0.70;;;;;;;24.55;22.11;100659.41;5015392;28;20500;-70
2021/05/20 10:52:37;;;;;;;0.93;0.80;;;;;;;24.61;22.07;100663.25;5015300;28;20129;-70
2021/05/20 10:55:07;;;;;;;3.22;1.10;;;;;;;24.59;21.87;100654.59;5010709;28;20042;-71
2021/05/20 10:57:46;;;;;;;2.35;1.13;;;;;;;24.54;22.60;100658.56;5015010;28;20400;-70
2021/05/20 11:00:33;;;;;;;3.30;1.02;;;;;;;24.45;22.12;100651.53;5015210;28;20038;-72
2021/05/20 11:03:00;;;;;;;1.45;0.95;;;;;;;24.59;22.17;100652.75;5001218;28;20073;-71
2021/05/20 11:05:39;;;;;;;3.28;0.90;;;;;;;24.68;21.98;100651.00;5014358;28;20137;-70
2021/05/20 11:08:31;;;;;;;0.90;0.90;;;;;;;24.76;21.74;100648.34;5015145;28;20106;-73
2021/05/20 11:11:01;;;;;;;4.03;0.90;;;;;;;24.85;22.06;100635.91;5014617;28;20488;-70
2021/05/20 11:13:38;;;;;;;2.00;0.73;;;;;;;24.92;21.94;100656.44;5014558;28;20049;-72
2021/05/20 11:16:13;;;;;;;2.88;0.98;;;;;;;24.77;21.41;100645.56;5014180;28;20045;-76
2021/05/20 11:18:42;;;;;;;2.00;0.82;;;;;;;24.89;21.64;100650.59;5013847;28;20042;-77
2021/05/20 11:21:09;;;;;;;1.48;0.68;;;;;;;24.62;20.96;100648.97;5013500;28;20565;-83
2021/05/20 11:23:40;;;;;;;1.15;1.05;;;;;;;24.69;22.37;100639.31;5014566;28;20492;-75
2021/05/20 11:26:10;;;;;;;0.70;0.70;;;;;;;24.61;21.82;100645.47;5013897;28;20130;-75
2021/05/20 11:28:42;;;;;;;2.65;1.08;;;;;;;24.74;22.33;100645.84;5014701;28;20038;-74
2021/05/20 11:31:10;;;;;;;1.25;0.60;;;;;;;24.78;21.67;100649.06;5012710;28;20046;-75
2021/05/20 11:33:53;;;;;;;0.60;0.60;;;;;;;24.86;20.49;100646.41;4997341;28;20044;-76